Winthrop, MA (02152)

10:16 PM EST on February 10, 2016 (GMT -0500)
Orient Heights | | Change Station
CLOSE
Current Station
Personal Weather Station
Location: Boston, MA
Elevation: 49 ft
Nearby Weather Stations
Active Advisory: Special Statement

Elev 49 ft 42.39 °N, 71.00 °W | Updated 14 minutes ago

Scattered Clouds
Scattered Clouds
32.0 °F
Feels Like 32 °F
N
2.2
Wind Variable Wind from ESE

Today
High -- | Low -- °F
--% Chance of Precip.
Yesterday
High -- | Low -- °F
Precip. -- in
Pressure 29.63 in
Visibility 10.0 miles
Clouds Few 7500 ft
Scattered Clouds 20000 ft
Windchill 32 °F
Dew Point 25 °F
Humidity 75%
Rainfall 0.18 in
Snow Depth Not available.
6:47 AM 5:09 PM
Waxing Crescent, 9% visible
METAR KBOS 110254Z 27008G16KT 10SM FEW075 SCT200 01/M04 A2963 RMK AO2 SLP033 T00061044 51006
Pressure 29.63 in
Visibility 10.0 miles
Clouds Few 7500 ft
Scattered Clouds 20000 ft
Windchill 32 °F
Dew Point 25 °F
Humidity 75%
Rainfall 0.18 in
Snow Depth Not available.
6:47 AM 5:09 PM
Waxing Crescent, 9% visible
METAR KBOS 110254Z 27008G16KT 10SM FEW075 SCT200 01/M04 A2963 RMK AO2 SLP033 T00061044 51006

10-Day Weather Forecast

Almanac

Astronomy

Feb. 10, 2016 Rise Set
Actual Time
Civil Twilight
Nautical Twilight
Astronomical Twilight
Moon
Length of Visible Light
Length of Day
Tomorrow will be .
, % of the Moon is Illuminated

Today's Extremes

State Highs State Lows

Community

WunderPhotos

Upload Photos

1,891,993 photos uploaded!

WunderBlog® & News

Nearby

Air Quality

  Air Quality AQ Index Pollutant
Not available.

Snow Depth

Station Depth Elevation

Earthquake Activity

City Distance Mag. Time & Date
Minimum magnitude displayed is 2.5.

Coastal Water Temperatures

Place Temperature

Stations

Nearby Weather Stations

Station Location Temp. Windchill Dew Point Humidity Wind Precip. Elev Updated Type
                   

Watches & Warnings

Special Statement
Issued: 7:53 PM EST Feb. 10, 2016 – National Weather Service

... Patchy black ice may develop this evening...

Isolated snow showers will be coming to an end this evening.
However... temperatures were dropping below freezing and winds
were rather light. This may allow patchy black ice to develop on
wet roads and walkways from the earlier snow showers. Motorists
are urged to drive with extra caution this evening as roads that
appear wet may be icy.


Frank


753 PM EST Wed Feb 10 2016

... Patchy black ice may develop this evening...

Isolated snow showers will be coming to an end this evening.
However... temperatures were dropping below freezing and winds
were rather light. This may allow patchy black ice to develop on
wet roads and walkways from the earlier snow showers. Motorists
are urged to drive with extra caution this evening as roads that
appear wet may be icy.


Frank